Time;durP1;ratioP1;P1;durP2;ratioP2;P2;SDS_P1;SDS_P2;PMS_P1;PMS_P2;Temp;Humidity;BMP_temperature;BMP_pressure;BME280_temperature;BME280_humidity;BME280_pressure;Samples;Min_cycle;Max_cycle;Signal;HPM_P1;HPM_P2
2023/02/25 00:01:39;;;;;;;74.17;41.03;;;11.40;93.10;;;;;;4949266;28;20230;-79
2023/02/25 00:04:14;;;;;;;65.63;38.63;;;11.40;93.10;;;;;;4944445;28;20227;-79
2023/02/25 00:06:41;;;;;;;69.17;35.40;;;11.40;93.10;;;;;;4954171;28;20293;-79
2023/02/25 00:09:10;;;;;;;71.43;39.23;;;11.40;93.00;;;;;;4948208;28;20284;-79
2023/02/25 00:11:39;;;;;;;65.70;37.33;;;11.40;93.00;;;;;;4950178;28;20263;-79
2023/02/25 00:14:08;;;;;;;58.90;37.67;;;11.40;93.00;;;;;;4927794;29;20290;-80
2023/02/25 00:16:37;;;;;;;67.30;39.90;;;11.40;93.00;;;;;;4939028;28;20855;-80
2023/02/25 00:19:06;;;;;;;63.10;40.17;;;11.30;93.00;;;;;;4950003;28;20270;-80
2023/02/25 00:21:36;;;;;;;61.97;37.67;;;11.40;93.00;;;;;;4948586;28;20359;-81
2023/02/25 00:24:04;;;;;;;59.67;37.07;;;11.40;93.00;;;;;;4953293;28;20581;-79
2023/02/25 00:26:43;;;;;;;61.67;36.30;;;11.40;93.00;;;;;;4956833;28;20301;-79
2023/02/25 00:29:13;;;;;;;62.60;38.90;;;11.40;92.90;;;;;;4929246;29;20290;-79
2023/02/25 00:31:40;;;;;;;65.30;37.80;;;11.40;93.00;;;;;;4956485;28;20208;-80
2023/02/25 00:34:08;;;;;;;65.23;37.37;;;11.40;93.10;;;;;;4938292;28;20258;-79
2023/02/25 00:36:35;;;;;;;68.77;41.97;;;11.40;93.40;;;;;;4938140;28;20203;-79
2023/02/25 00:39:04;;;;;;;64.63;39.10;;;11.40;93.20;;;;;;4935591;28;20203;-79
2023/02/25 00:41:34;;;;;;;59.37;37.27;;;11.40;93.20;;;;;;4935949;29;20200;-79
2023/02/25 00:44:01;;;;;;;60.93;38.27;;;11.40;93.30;;;;;;4946895;28;20316;-79
2023/02/25 00:46:29;;;;;;;68.40;39.53;;;11.40;93.30;;;;;;4931241;29;20225;-79
2023/02/25 00:48:57;;;;;;;72.20;42.13;;;11.40;93.30;;;;;;4956840;28;20209;-79
2023/02/25 00:51:29;;;;;;;81.93;42.53;;;11.40;93.40;;;;;;4937141;29;20207;-79
2023/02/25 00:53:56;;;;;;;68.57;40.03;;;11.40;93.40;;;;;;4934948;29;20211;-79
2023/02/25 00:56:24;;;;;;;66.80;38.37;;;11.50;93.40;;;;;;4937415;29;20230;-79
2023/02/25 00:58:52;;;;;;;60.33;37.00;;;11.50;93.40;;;;;;4946812;28;20327;-79
2023/02/25 01:01:26;;;;;;;71.90;38.23;;;11.50;93.30;;;;;;4943127;28;20211;-79
2023/02/25 01:03:55;;;;;;;70.07;40.53;;;11.50;93.30;;;;;;4933926;29;20297;-78
2023/02/25 01:06:24;;;;;;;76.63;41.53;;;11.50;93.30;;;;;;4945740;28;20205;-78
2023/02/25 01:08:52;;;;;;;71.93;41.87;;;11.50;93.30;;;;;;4934380;29;20676;-78
2023/02/25 01:11:26;;;;;;;66.67;39.17;;;11.50;93.30;;;;;;4957146;28;20301;-78
2023/02/25 01:14:18;;;;;;;62.47;38.37;;;11.50;93.30;;;;;;4936065;28;20209;-79
2023/02/25 01:16:47;;;;;;;66.57;39.93;;;11.50;93.40;;;;;;4931794;28;20204;-79
2023/02/25 01:19:18;;;;;;;62.20;38.97;;;11.50;93.40;;;;;;4957035;28;20576;-79
2023/02/25 01:21:48;;;;;;;65.27;39.87;;;11.50;93.40;;;;;;4944219;28;20523;-80
2023/02/25 01:24:22;;;;;;;67.30;40.80;;;11.50;93.50;;;;;;4955737;28;20223;-79
2023/02/25 01:26:52;;;;;;;69.53;39.63;;;11.50;93.50;;;;;;4939155;29;20205;-79
2023/02/25 01:29:42;;;;;;;65.10;41.03;;;11.50;93.50;;;;;;4953229;28;20201;-79
2023/02/25 01:32:12;;;;;;;65.33;39.90;;;11.50;93.40;;;;;;4941391;28;20244;-79
2023/02/25 01:34:40;;;;;;;70.80;40.40;;;11.50;93.40;;;;;;4945593;28;20210;-78
2023/02/25 01:37:08;;;;;;;68.07;39.90;;;11.60;93.40;;;;;;4941593;28;20232;-79
2023/02/25 01:39:40;;;;;;;70.40;39.30;;;11.50;93.50;;;;;;4935042;29;20673;-79
2023/02/25 01:42:15;;;;;;;64.10;39.57;;;11.60;93.60;;;;;;4928401;28;20228;-79
2023/02/25 01:45:10;;;;;;;66.60;38.87;;;11.60;93.60;;;;;;4956706;28;20212;-79
2023/02/25 01:47:38;;;;;;;62.80;39.10;;;11.60;93.50;;;;;;4939046;28;20206;-80
2023/02/25 01:50:07;;;;;;;69.27;39.37;;;11.60;93.50;;;;;;4963018;28;20212;-79
2023/02/25 01:52:35;;;;;;;73.50;40.73;;;11.60;93.50;;;;;;4931966;28;20206;-78
2023/02/25 01:55:03;;;;;;;67.60;39.70;;;11.60;93.50;;;;;;4953924;28;20209;-79
2023/02/25 01:57:30;;;;;;;65.83;38.97;;;11.60;93.50;;;;;;4951215;28;20218;-79
2023/02/25 01:59:58;;;;;;;64.00;35.93;;;11.60;93.50;;;;;;4960074;28;20212;-78
2023/02/25 02:02:27;;;;;;;64.87;40.27;;;11.60;93.50;;;;;;4949855;28;20219;-78
2023/02/25 02:04:55;;;;;;;63.00;37.30;;;11.60;93.40;;;;;;4950990;28;20526;-78
2023/02/25 02:07:23;;;;;;;66.73;39.43;;;11.60;93.70;;;;;;4930118;29;20201;-78
2023/02/25 02:09:57;;;;;;;61.67;39.60;;;11.60;93.50;;;;;;4949859;28;20215;-78
2023/02/25 02:12:34;;;;;;;64.87;38.87;;;11.60;93.50;;;;;;4940617;28;20239;-78
2023/02/25 02:15:07;;;;;;;67.77;37.50;;;11.60;93.50;;;;;;4950686;28;20217;-79
2023/02/25 02:17:57;;;;;;;66.93;38.17;;;11.60;93.40;;;;;;4956135;28;20382;-78
2023/02/25 02:21:18;;;;;;;62.13;40.70;;;11.60;93.50;;;;;;4951904;28;20562;-79
2023/02/25 02:24:01;;;;;;;64.93;37.53;;;11.60;93.60;;;;;;4905581;29;20230;-78
2023/02/25 02:27:02;;;;;;;67.47;39.03;;;11.60;93.60;;;;;;4948330;28;20332;-78
2023/02/25 02:29:49;;;;;;;66.90;40.87;;;11.60;93.70;;;;;;4956846;28;20309;-79
2023/02/25 02:32:52;;;;;;;64.00;36.97;;;11.60;93.70;;;;;;4965623;28;20213;-79
2023/02/25 02:35:42;;;;;;;58.73;36.77;;;11.60;94.00;;;;;;4950202;28;20200;-79
2023/02/25 02:38:28;;;;;;;66.87;38.87;;;11.60;93.80;;;;;;4946265;28;20205;-80
2023/02/25 02:41:06;;;;;;;77.50;40.87;;;11.60;93.80;;;;;;4954419;28;20541;-80
2023/02/25 02:43:45;;;;;;;69.17;41.40;;;11.60;93.80;;;;;;4940275;29;20228;-79
2023/02/25 02:46:23;;;;;;;76.37;44.43;;;11.60;93.90;;;;;;4951924;28;20269;-79
2023/02/25 02:48:56;;;;;;;68.47;40.70;;;11.60;93.90;;;;;;4951469;28;20220;-80
2023/02/25 02:51:36;;;;;;;73.00;40.07;;;11.60;94.00;;;;;;4958759;28;20211;-80
2023/02/25 02:54:08;;;;;;;65.70;38.63;;;11.60;94.10;;;;;;4947222;28;20220;-79
2023/02/25 02:56:41;;;;;;;67.97;40.27;;;11.50;94.10;;;;;;4947756;28;20245;-80
2023/02/25 02:59:32;;;;;;;63.73;39.50;;;11.50;94.20;;;;;;4945420;29;20209;-79
2023/02/25 03:02:29;;;;;;;61.30;37.60;;;11.50;94.40;;;;;;4944063;28;20217;-79
2023/02/25 03:05:03;;;;;;;71.50;38.40;;;11.50;94.50;;;;;;4936806;28;20236;-80
2023/02/25 03:07:33;;;;;;;65.13;39.50;;;11.50;94.60;;;;;;4959418;28;20268;-79
2023/02/25 03:10:05;;;;;;;69.63;39.67;;;11.50;94.70;;;;;;4934020;29;20215;-80
2023/02/25 03:12:32;;;;;;;76.07;40.67;;;11.50;94.80;;;;;;4945101;29;20241;-79
2023/02/25 03:14:59;;;;;;;62.57;38.77;;;11.50;94.90;;;;;;4952852;28;20226;-80
2023/02/25 03:17:31;;;;;;;66.67;39.23;;;11.50;95.00;;;;;;4936202;29;20266;-80
2023/02/25 03:20:33;;;;;;;71.20;39.93;;;11.50;95.10;;;;;;4944221;28;20927;-80
2023/02/25 03:23:07;;;;;;;66.70;40.07;;;11.60;95.20;;;;;;4949886;28;20212;-80
2023/02/25 03:25:46;;;;;;;63.60;37.57;;;11.60;95.20;;;;;;4942361;28;20211;-80
2023/02/25 03:28:24;;;;;;;68.37;39.00;;;11.60;95.20;;;;;;4932413;29;20211;-80
2023/02/25 03:31:01;;;;;;;68.90;37.00;;;11.60;95.30;;;;;;4930844;29;20624;-80
2023/02/25 03:33:33;;;;;;;63.83;39.13;;;11.60;95.30;;;;;;4949493;28;20210;-80
2023/02/25 03:36:09;;;;;;;68.03;38.80;;;11.50;95.60;;;;;;4951588;28;20215;-80
2023/02/25 03:38:43;;;;;;;66.43;38.37;;;11.50;95.40;;;;;;4946638;28;20222;-80
2023/02/25 03:41:12;;;;;;;59.77;38.63;;;11.50;95.40;;;;;;4950685;28;20210;-81
2023/02/25 03:43:45;;;;;;;70.67;38.93;;;11.40;95.40;;;;;;4931085;29;20256;-80
2023/02/25 03:46:13;;;;;;;65.40;38.53;;;11.50;95.50;;;;;;4928308;29;20308;-80
2023/02/25 03:48:43;;;;;;;61.60;37.73;;;11.40;95.50;;;;;;4949187;28;20296;-80
2023/02/25 03:51:17;;;;;;;58.60;34.73;;;11.40;95.50;;;;;;4934397;29;20203;-80
2023/02/25 03:53:45;;;;;;;64.80;38.93;;;11.40;95.60;;;;;;4945485;28;20217;-80
2023/02/25 03:56:22;;;;;;;60.70;36.43;;;11.30;95.50;;;;;;4943763;29;20577;-80
2023/02/25 03:58:50;;;;;;;64.50;37.13;;;11.30;95.60;;;;;;4934592;29;20222;-80
2023/02/25 04:01:28;;;;;;;65.90;36.73;;;11.30;95.70;;;;;;4947224;28;20278;-80
2023/02/25 04:03:55;;;;;;;61.13;38.60;;;11.30;95.80;;;;;;4941967;28;20256;-80
2023/02/25 04:06:24;;;;;;;72.17;40.10;;;11.30;95.80;;;;;;4929399;29;20603;-80
2023/02/25 04:08:52;;;;;;;72.10;43.43;;;11.30;95.70;;;;;;4938459;29;20223;-80
2023/02/25 04:11:19;;;;;;;72.67;43.73;;;11.30;95.70;;;;;;4938478;29;20202;-80
2023/02/25 04:13:47;;;;;;;83.27;46.70;;;11.20;95.70;;;;;;4952735;28;20228;-80
2023/02/25 04:16:15;;;;;;;80.90;44.60;;;11.20;95.60;;;;;;4930355;29;20305;-80
2023/02/25 04:18:43;;;;;;;70.73;43.70;;;11.10;95.60;;;;;;4942670;28;20214;-80
2023/02/25 04:21:31;;;;;;;71.10;41.70;;;11.10;95.60;;;;;;4948677;28;20201;-85
2023/02/25 04:24:00;;;;;;;84.60;43.43;;;11.00;95.60;;;;;;4957864;28;20225;-80
2023/02/25 04:26:29;;;;;;;73.27;40.30;;;10.90;95.60;;;;;;4936479;28;20309;-80
2023/02/25 04:28:56;;;;;;;66.43;41.33;;;10.90;95.50;;;;;;4931076;28;20304;-80
2023/02/25 04:31:24;;;;;;;67.53;38.87;;;10.80;95.50;;;;;;4953994;28;20205;-80
2023/02/25 04:33:51;;;;;;;66.30;40.03;;;10.70;95.60;;;;;;4929951;29;20214;-80
2023/02/25 04:36:46;;;;;;;69.57;41.17;;;10.70;95.60;;;;;;4955299;28;20277;-80
2023/02/25 04:39:15;;;;;;;76.83;43.47;;;10.60;95.70;;;;;;4950890;28;20213;-80
2023/02/25 04:41:45;;;;;;;74.97;44.87;;;10.60;95.70;;;;;;4949573;28;20210;-79
2023/02/25 04:44:13;;;;;;;71.07;39.80;;;10.50;95.70;;;;;;4951320;28;20221;-80
2023/02/25 04:46:42;;;;;;;70.67;42.17;;;10.50;95.80;;;;;;4956983;28;20198;-80
2023/02/25 04:49:09;;;;;;;75.43;41.83;;;10.40;95.80;;;;;;4951631;28;20204;-80
2023/02/25 04:51:38;;;;;;;61.70;37.70;;;10.40;95.90;;;;;;4935883;29;20268;-80
2023/02/25 04:54:05;;;;;;;74.63;44.80;;;10.40;95.90;;;;;;4954542;28;20219;-80
2023/02/25 04:56:32;;;;;;;74.13;42.77;;;10.40;95.90;;;;;;4944393;28;20215;-80
2023/02/25 04:58:59;;;;;;;80.20;45.47;;;10.30;96.10;;;;;;4948422;28;20205;-79
2023/02/25 05:01:27;;;;;;;85.97;45.90;;;10.30;96.20;;;;;;4935740;28;20227;-79
2023/02/25 05:03:55;;;;;;;54.00;33.53;;;10.30;96.20;;;;;;4947854;28;20291;-80
2023/02/25 05:06:24;;;;;;;82.07;45.80;;;10.30;96.50;;;;;;4935826;29;20203;-80
2023/02/25 05:08:52;;;;;;;75.60;42.53;;;10.40;96.30;;;;;;4949080;28;20212;-80
2023/02/25 05:11:20;;;;;;;78.37;43.47;;;10.40;96.20;;;;;;4951501;28;20270;-80
2023/02/25 05:13:48;;;;;;;74.03;42.13;;;10.40;96.40;;;;;;4964542;28;20205;-80
2023/02/25 05:16:18;;;;;;;67.50;42.43;;;10.40;96.10;;;;;;4933035;28;20209;-80
2023/02/25 05:18:46;;;;;;;65.80;40.33;;;10.40;96.10;;;;;;4951041;28;20300;-80
2023/02/25 05:21:19;;;;;;;73.93;38.87;;;10.30;96.10;;;;;;4934029;28;20255;-80
2023/02/25 05:23:48;;;;;;;88.63;47.70;;;10.30;96.10;;;;;;4933172;29;20213;-80
2023/02/25 05:26:20;;;;;;;87.13;50.70;;;10.30;96.10;;;;;;4944912;28;20204;-80
2023/02/25 05:28:50;;;;;;;78.77;43.63;;;10.30;96.00;;;;;;4948930;28;20367;-80
2023/02/25 05:31:20;;;;;;;86.37;46.87;;;10.30;96.10;;;;;;4957699;28;20233;-79
2023/02/25 05:33:50;;;;;;;79.47;45.10;;;10.30;96.20;;;;;;4948825;28;20212;-81
2023/02/25 05:36:18;;;;;;;78.70;46.00;;;10.30;96.30;;;;;;4955379;28;20212;-80
2023/02/25 05:38:46;;;;;;;89.37;48.10;;;10.30;96.30;;;;;;4954499;28;20264;-80
2023/02/25 05:41:15;;;;;;;79.87;43.97;;;10.30;96.20;;;;;;4949903;28;20217;-80
2023/02/25 05:43:44;;;;;;;99.47;54.57;;;10.30;96.30;;;;;;4952387;28;20223;-82
2023/02/25 05:46:14;;;;;;;91.07;53.43;;;10.30;96.20;;;;;;4948592;28;20229;-81
2023/02/25 05:48:47;;;;;;;89.57;50.87;;;10.30;96.60;;;;;;4932617;28;20220;-81
2023/02/25 05:51:17;;;;;;;90.37;46.73;;;10.40;96.60;;;;;;4937071;29;20213;-79
2023/02/25 05:53:47;;;;;;;79.60;46.30;;;10.30;96.70;;;;;;4950545;29;20208;-81
2023/02/25 05:56:19;;;;;;;85.57;44.63;;;10.30;96.90;;;;;;4939134;29;20533;-80
2023/02/25 05:58:47;;;;;;;78.67;44.10;;;10.30;97.30;;;;;;4953285;28;20635;-80
2023/02/25 06:01:18;;;;;;;78.20;44.83;;;10.40;97.30;;;;;;4951282;28;20272;-80
2023/02/25 06:03:47;;;;;;;79.20;42.63;;;10.40;97.50;;;;;;4947247;28;20213;-80
2023/02/25 06:06:21;;;;;;;78.03;43.80;;;10.40;97.70;;;;;;4941416;29;20263;-79
2023/02/25 06:08:50;;;;;;;73.33;43.57;;;10.40;97.70;;;;;;4955838;28;20291;-80
2023/02/25 06:11:26;;;;;;;75.73;42.00;;;10.40;97.60;;;;;;4938803;28;20205;-80
2023/02/25 06:13:54;;;;;;;82.27;41.83;;;10.50;97.70;;;;;;4940654;29;20533;-80
2023/02/25 06:16:24;;;;;;;71.90;41.33;;;10.50;97.70;;;;;;4947035;28;20249;-80
2023/02/25 06:18:52;;;;;;;66.73;41.10;;;10.60;97.60;;;;;;4938099;29;20212;-80
2023/02/25 06:21:21;;;;;;;68.37;39.70;;;10.60;97.60;;;;;;4954935;28;20215;-80
2023/02/25 06:23:49;;;;;;;67.63;38.23;;;10.60;97.50;;;;;;4955328;28;20284;-80
2023/02/25 06:26:17;;;;;;;63.53;37.43;;;10.60;97.40;;;;;;4968084;28;20597;-80
2023/02/25 06:28:44;;;;;;;64.53;37.93;;;10.60;97.40;;;;;;4940446;28;20199;-82
2023/02/25 06:31:14;;;;;;;67.70;40.27;;;10.60;97.30;;;;;;4953032;28;20226;-80
2023/02/25 06:33:41;;;;;;;63.27;38.57;;;10.60;97.30;;;;;;4937414;28;20245;-79
2023/02/25 06:36:09;;;;;;;71.00;40.67;;;10.60;97.20;;;;;;4977480;28;20234;-80
2023/02/25 06:38:36;;;;;;;69.17;39.93;;;10.70;97.20;;;;;;4953213;28;20209;-80
2023/02/25 06:41:13;;;;;;;71.03;40.43;;;10.70;97.20;;;;;;4955782;28;20220;-80
2023/02/25 06:43:40;;;;;;;62.63;38.97;;;10.70;97.20;;;;;;4949655;28;20208;-80
2023/02/25 06:46:11;;;;;;;66.13;38.80;;;10.70;97.20;;;;;;4954459;28;20215;-80
2023/02/25 06:48:39;;;;;;;70.50;40.80;;;10.80;97.20;;;;;;4933342;29;20210;-80
2023/02/25 06:51:08;;;;;;;75.17;41.77;;;10.80;97.10;;;;;;4952881;28;20244;-81
2023/02/25 06:53:37;;;;;;;71.10;42.27;;;10.80;96.90;;;;;;4959981;28;20630;-81
2023/02/25 06:56:07;;;;;;;76.67;41.87;;;10.80;96.90;;;;;;4947368;28;20220;-81
2023/02/25 06:58:35;;;;;;;74.80;40.97;;;10.90;97.00;;;;;;4957137;28;20202;-81
2023/02/25 07:01:08;;;;;;;70.87;41.40;;;10.90;96.90;;;;;;4952498;28;20227;-81
2023/02/25 07:03:38;;;;;;;68.57;42.23;;;10.90;96.90;;;;;;4933289;29;20205;-80
2023/02/25 07:06:07;;;;;;;68.97;40.67;;;10.90;96.90;;;;;;4955876;28;20217;-80
2023/02/25 07:08:35;;;;;;;70.27;41.13;;;10.90;97.00;;;;;;4932726;28;20217;-81
2023/02/25 07:11:14;;;;;;;69.37;40.40;;;10.90;97.00;;;;;;4948719;28;20201;-82
2023/02/25 07:13:42;;;;;;;64.93;39.67;;;11.00;97.10;;;;;;4931965;29;20202;-80
2023/02/25 07:16:11;;;;;;;64.50;38.17;;;11.00;97.10;;;;;;4932267;29;20301;-81
2023/02/25 07:18:39;;;;;;;70.30;41.57;;;11.00;97.10;;;;;;4937102;29;20631;-81
2023/02/25 07:21:08;;;;;;;71.17;42.70;;;11.00;97.10;;;;;;4927390;29;20229;-80
2023/02/25 07:23:35;;;;;;;70.30;41.40;;;11.00;97.00;;;;;;4934907;29;20211;-80
2023/02/25 07:26:08;;;;;;;73.80;43.03;;;11.10;97.10;;;;;;4925776;29;20234;-80
2023/02/25 07:28:36;;;;;;;72.73;44.63;;;11.10;97.00;;;;;;4924917;29;20245;-81
2023/02/25 07:31:11;;;;;;;84.73;48.57;;;11.20;96.90;;;;;;4929744;29;20553;-80
2023/02/25 07:33:40;;;;;;;82.33;47.83;;;11.20;96.90;;;;;;4937701;29;20209;-80
2023/02/25 07:36:08;;;;;;;80.63;48.80;;;11.30;96.90;;;;;;4922327;29;20208;-80
2023/02/25 07:38:36;;;;;;;83.80;46.67;;;11.40;97.00;;;;;;4919548;29;20287;-79
2023/02/25 07:41:11;;;;;;;82.60;49.33;;;11.40;97.00;;;;;;4936360;29;20218;-80
2023/02/25 07:43:39;;;;;;;98.53;53.70;;;11.50;97.00;;;;;;4924212;29;20226;-79
2023/02/25 07:46:07;;;;;;;92.33;51.90;;;11.60;97.00;;;;;;4918319;29;20231;-80
2023/02/25 07:48:36;;;;;;;96.67;49.67;;;11.70;97.00;;;;;;4922627;29;20233;-80
2023/02/25 07:51:17;;;;;;;87.17;49.57;;;11.70;96.90;;;;;;4918647;29;20207;-79
2023/02/25 07:53:46;;;;;;;101.67;53.97;;;11.80;96.90;;;;;;4912701;29;20209;-80
2023/02/25 07:56:14;;;;;;;98.00;52.63;;;11.90;96.90;;;;;;4922669;29;20212;-79
2023/02/25 07:58:42;;;;;;;102.03;54.73;;;11.90;96.80;;;;;;4917709;29;20244;-80
2023/02/25 08:01:26;;;;;;;105.07;55.80;;;12.00;96.70;;;;;;4939671;29;20229;-80
2023/02/25 08:04:02;;;;;;;105.40;55.23;;;12.10;96.70;;;;;;4911092;29;20684;-81
2023/02/25 08:06:33;;;;;;;97.57;50.67;;;12.20;96.70;;;;;;4918588;29;20651;-80
2023/02/25 08:09:00;;;;;;;98.53;51.10;;;12.40;96.70;;;;;;4917707;29;20297;-80
2023/02/25 08:11:31;;;;;;;96.37;51.93;;;12.50;96.60;;;;;;4936189;29;20646;-79
2023/02/25 08:14:00;;;;;;;89.73;48.73;;;12.60;96.50;;;;;;4960074;28;20237;-80
2023/02/25 08:16:27;;;;;;;86.00;49.00;;;12.70;96.40;;;;;;4971927;28;20215;-79
2023/02/25 08:18:55;;;;;;;88.27;49.47;;;12.80;96.30;;;;;;4936625;29;20220;-80
2023/02/25 08:21:22;;;;;;;83.87;49.73;;;13.00;96.10;;;;;;4945825;28;20603;-79
2023/02/25 08:23:52;;;;;;;84.90;51.37;;;13.10;96.00;;;;;;4949143;28;20225;-79
2023/02/25 08:26:21;;;;;;;84.17;48.43;;;13.20;95.80;;;;;;4958497;28;20244;-80
2023/02/25 08:28:51;;;;;;;84.53;48.60;;;13.30;95.60;;;;;;4954658;28;20291;-79
2023/02/25 08:31:20;;;;;;;82.77;49.57;;;13.50;95.40;;;;;;4939975;29;20273;-80
2023/02/25 08:33:52;;;;;;;88.80;47.87;;;13.50;95.20;;;;;;4963098;28;20237;-80
2023/02/25 08:36:22;;;;;;;81.00;46.23;;;13.60;94.90;;;;;;4955455;29;20213;-79
2023/02/25 08:38:51;;;;;;;73.93;44.10;;;13.70;94.60;;;;;;4936314;28;20225;-79
2023/02/25 08:41:20;;;;;;;81.83;47.97;;;13.80;94.50;;;;;;4943141;29;20528;-80
2023/02/25 08:43:50;;;;;;;75.83;45.13;;;13.90;94.30;;;;;;4952387;28;20573;-79
2023/02/25 08:46:26;;;;;;;75.00;45.50;;;14.00;94.20;;;;;;4951751;29;20683;-79
2023/02/25 08:48:54;;;;;;;82.83;48.57;;;14.10;94.00;;;;;;4955561;28;20263;-79
2023/02/25 08:51:23;;;;;;;75.80;47.03;;;14.20;93.90;;;;;;4955371;28;20259;-79
2023/02/25 08:53:51;;;;;;;72.57;44.27;;;14.30;93.80;;;;;;4957316;28;20614;-78
2023/02/25 08:56:18;;;;;;;76.80;46.93;;;14.40;93.60;;;;;;4954108;28;20289;-79
2023/02/25 08:58:46;;;;;;;86.30;49.50;;;14.50;93.50;;;;;;4956515;28;20625;-79
2023/02/25 09:01:16;;;;;;;83.57;49.30;;;14.50;93.20;;;;;;4950519;28;20288;-79
2023/02/25 09:03:50;;;;;;;80.63;49.60;;;14.50;93.00;;;;;;4950597;28;20590;-79
2023/02/25 09:06:23;;;;;;;83.37;50.33;;;14.60;92.90;;;;;;4955975;28;20762;-78
2023/02/25 09:08:51;;;;;;;82.80;49.73;;;14.60;92.80;;;;;;4937799;28;20200;-79
2023/02/25 09:11:19;;;;;;;75.33;48.40;;;14.60;92.70;;;;;;4946676;28;20204;-78
2023/02/25 09:13:47;;;;;;;81.63;48.03;;;14.70;92.60;;;;;;4961663;28;20220;-78
2023/02/25 09:16:16;;;;;;;81.80;48.13;;;14.70;92.50;;;;;;4953332;28;20219;-78
2023/02/25 09:18:46;;;;;;;89.43;53.13;;;14.70;92.40;;;;;;4938032;29;20210;-78
2023/02/25 09:21:17;;;;;;;86.40;53.47;;;14.70;92.30;;;;;;4959002;28;20201;-78
2023/02/25 09:23:50;;;;;;;92.93;53.60;;;14.70;92.10;;;;;;4929952;29;20212;-78
2023/02/25 09:26:20;;;;;;;85.00;53.63;;;14.70;92.10;;;;;;4951678;28;20304;-78
2023/02/25 09:28:48;;;;;;;87.20;53.43;;;14.70;91.90;;;;;;4931698;28;20197;-79
2023/02/25 09:31:17;;;;;;;89.03;54.57;;;14.70;91.90;;;;;;4940297;29;20213;-78
2023/02/25 09:33:47;;;;;;;92.57;53.43;;;14.80;91.90;;;;;;4954349;28;20276;-79
2023/02/25 09:36:17;;;;;;;81.13;50.80;;;14.80;91.90;;;;;;4949648;28;20228;-79
2023/02/25 09:38:46;;;;;;;91.70;53.40;;;14.90;91.90;;;;;;4950198;28;20224;-78
2023/02/25 09:41:32;;;;;;;88.20;52.20;;;15.00;91.80;;;;;;4930520;29;20667;-78
2023/02/25 09:44:23;;;;;;;76.17;49.77;;;15.10;91.70;;;;;;4944524;28;20233;-78
2023/02/25 09:47:18;;;;;;;84.77;52.53;;;15.20;91.60;;;;;;4949264;28;20367;-78
2023/02/25 09:50:06;;;;;;;83.80;51.80;;;15.40;91.30;;;;;;4951195;28;20234;-79
2023/02/25 09:52:43;;;;;;;85.93;51.23;;;15.50;91.00;;;;;;4949038;28;20288;-78
2023/02/25 09:55:19;;;;;;;86.47;52.83;;;15.60;90.90;;;;;;4948860;28;20301;-79
2023/02/25 09:58:03;;;;;;;85.13;51.07;;;15.80;90.80;;;;;;4933151;29;20302;-79
2023/02/25 10:00:39;;;;;;;80.50;49.33;;;15.90;90.70;;;;;;4946518;29;20233;-79
2023/02/25 10:03:20;;;;;;;80.37;50.90;;;16.10;90.50;;;;;;4951581;28;20210;-78
2023/02/25 10:06:06;;;;;;;86.33;51.77;;;16.40;90.30;;;;;;4950353;28;20221;-78
2023/02/25 10:08:51;;;;;;;81.83;49.53;;;16.60;89.70;;;;;;4958310;28;20256;-82
2023/02/25 10:11:45;;;;;;;77.63;49.13;;;16.70;88.70;;;;;;4959864;28;20200;-79
2023/02/25 10:14:50;;;;;;;80.53;49.70;;;16.80;87.60;;;;;;4948127;28;20214;-80
2023/02/25 10:17:21;;;;;;;80.10;45.67;;;16.80;87.40;;;;;;4947067;28;20212;-80
2023/02/25 10:20:17;;;;;;;73.23;46.83;;;16.80;87.30;;;;;;4956303;28;20189;-80
2023/02/25 10:23:02;;;;;;;79.23;48.43;;;16.70;86.90;;;;;;4951958;28;20194;-79
2023/02/25 10:25:36;;;;;;;73.63;44.30;;;16.70;86.90;;;;;;4952759;28;20240;-80
2023/02/25 10:28:10;;;;;;;74.33;47.13;;;16.70;86.60;;;;;;4953559;28;20298;-79
2023/02/25 10:31:08;;;;;;;70.47;45.80;;;16.80;86.40;;;;;;4951344;28;20219;-79
2023/02/25 10:33:39;;;;;;;69.70;42.37;;;16.70;86.10;;;;;;4955990;28;20676;-81
2023/02/25 10:36:26;;;;;;;75.33;42.93;;;16.70;85.90;;;;;;4944150;28;20235;-79
2023/02/25 10:38:54;;;;;;;65.93;42.00;;;16.70;85.70;;;;;;4934080;28;20292;-79
2023/02/25 10:41:25;;;;;;;71.73;44.03;;;16.70;84.90;;;;;;4957492;28;20218;-79
2023/02/25 10:43:55;;;;;;;71.93;44.40;;;16.70;84.60;;;;;;4954848;28;20722;-79
2023/02/25 10:46:30;;;;;;;68.43;44.07;;;16.80;84.60;;;;;;4961095;28;20231;-79
2023/02/25 10:49:00;;;;;;;78.77;51.07;;;16.70;84.50;;;;;;4959058;28;20273;-79
2023/02/25 10:51:28;;;;;;;86.20;49.50;;;16.70;84.30;;;;;;4941907;29;20345;-78
2023/02/25 10:54:05;;;;;;;67.60;41.87;;;16.70;84.40;;;;;;4951787;28;20204;-79
2023/02/25 10:56:48;;;;;;;68.13;42.70;;;16.60;84.60;;;;;;4937125;28;20225;-78
2023/02/25 10:59:33;;;;;;;67.93;43.47;;;16.60;84.50;;;;;;4953201;28;20216;-78
2023/02/25 11:02:01;;;;;;;67.60;39.50;;;16.60;84.50;;;;;;4951519;28;20205;-78
2023/02/25 11:04:38;;;;;;;66.77;41.77;;;16.60;84.50;;;;;;4928119;28;20538;-79
2023/02/25 11:07:40;;;;;;;76.23;43.07;;;16.60;84.10;;;;;;4936928;28;20226;-78
2023/02/25 11:10:17;;;;;;;69.23;44.13;;;16.60;84.10;;;;;;4958454;29;20266;-78
2023/02/25 11:12:52;;;;;;;64.57;40.83;;;16.60;84.20;;;;;;4961377;28;20310;-78
2023/02/25 11:15:28;;;;;;;66.57;41.10;;;16.60;84.10;;;;;;4951655;28;20213;-78
2023/02/25 11:18:27;;;;;;;67.60;40.83;;;16.60;84.10;;;;;;4956499;28;20199;-78
2023/02/25 11:20:59;;;;;;;70.63;37.97;;;16.60;84.10;;;;;;4939866;28;20218;-79
2023/02/25 11:23:45;;;;;;;65.60;37.97;;;16.60;84.00;;;;;;4961137;28;20265;-78
2023/02/25 11:26:34;;;;;;;56.03;35.00;;;16.60;83.90;;;;;;4960962;28;21062;-79
2023/02/25 11:29:11;;;;;;;62.10;34.77;;;16.70;83.80;;;;;;4959152;28;20208;-79
2023/02/25 11:31:41;;;;;;;61.60;36.80;;;16.70;83.60;;;;;;4964509;28;20682;-80
2023/02/25 11:34:17;;;;;;;60.63;32.30;;;16.70;83.30;;;;;;4960169;28;20295;-79
2023/02/25 11:36:45;;;;;;;52.33;33.30;;;16.80;83.10;;;;;;4952410;28;20319;-80
2023/02/25 11:39:21;;;;;;;50.13;31.17;;;16.80;82.70;;;;;;4968803;28;20302;-79
2023/02/25 11:41:53;;;;;;;54.10;30.80;;;16.80;82.60;;;;;;4947150;28;20900;-79
2023/02/25 11:44:41;;;;;;;50.77;31.40;;;16.90;82.30;;;;;;4959479;28;20210;-79
2023/02/25 11:47:39;;;;;;;44.33;27.63;;;16.90;81.80;;;;;;4951813;28;20276;-79
2023/02/25 11:50:22;;;;;;;50.30;29.53;;;16.90;81.20;;;;;;4948472;28;20299;-79
2023/02/25 11:53:02;;;;;;;48.83;29.20;;;16.90;80.90;;;;;;4955100;28;20213;-79
2023/02/25 11:55:51;;;;;;;43.57;26.57;;;16.90;80.70;;;;;;4961675;28;20215;-79
2023/02/25 11:58:30;;;;;;;40.50;24.50;;;16.80;80.40;;;;;;4950509;28;20532;-79
2023/02/25 12:01:12;;;;;;;40.70;26.07;;;16.80;80.20;;;;;;4947412;28;20235;-81
2023/02/25 12:03:55;;;;;;;46.10;27.43;;;16.70;80.20;;;;;;4952177;28;20649;-80
2023/02/25 12:06:42;;;;;;;45.87;28.20;;;16.70;80.30;;;;;;4961083;28;20308;-80
2023/02/25 12:09:56;;;;;;;42.80;26.73;;;16.70;80.50;;;;;;4953245;28;20203;-79
2023/02/25 12:12:38;;;;;;;47.80;26.20;;;16.60;80.50;;;;;;4929569;29;20323;-80
2023/02/25 12:15:31;;;;;;;48.87;25.13;;;16.60;80.60;;;;;;4948765;28;20231;-80
2023/02/25 12:18:36;;;;;;;41.13;25.93;;;16.50;80.60;;;;;;4928657;29;20231;-80
2023/02/25 12:21:32;;;;;;;47.07;27.13;;;16.50;80.50;;;;;;4943717;28;20199;-79
2023/02/25 12:24:42;;;;;;;53.30;29.50;;;16.50;80.40;;;;;;4921363;29;20620;-79
2023/02/25 12:27:35;;;;;;;52.10;30.63;;;16.40;81.10;;;;;;4924221;29;20341;-79
2023/02/25 12:30:34;;;;;;;47.97;29.10;;;16.40;81.50;;;;;;4953779;28;20207;-79
2023/02/25 12:33:25;;;;;;;43.93;29.23;;;16.40;81.70;;;;;;4947807;28;20205;-79
2023/02/25 12:36:25;;;;;;;47.47;29.07;;;16.40;81.80;;;;;;4948122;28;20243;-79
2023/02/25 12:39:33;;;;;;;48.40;29.27;;;16.40;81.80;;;;;;4948939;28;20223;-79
2023/02/25 12:42:30;;;;;;;48.77;29.40;;;16.40;81.50;;;;;;4908334;29;20212;-79
2023/02/25 12:45:35;;;;;;;48.43;30.57;;;16.40;81.40;;;;;;4924452;29;20551;-79
2023/02/25 12:48:08;;;;;;;47.13;27.43;;;16.50;81.50;;;;;;4935118;29;20623;-79
2023/02/25 12:50:56;;;;;;;46.30;26.90;;;16.60;81.40;;;;;;4947266;28;20619;-79
2023/02/25 12:53:27;;;;;;;42.63;25.50;;;16.60;81.20;;;;;;4930910;29;20207;-79
2023/02/25 12:56:19;;;;;;;48.47;26.53;;;16.60;80.50;;;;;;4947983;28;20208;-79
2023/02/25 12:58:57;;;;;;;43.53;26.10;;;16.60;80.30;;;;;;4952408;28;20234;-79
2023/02/25 13:01:53;;;;;;;43.43;26.40;;;16.70;80.20;;;;;;4953290;28;20218;-80
2023/02/25 13:04:48;;;;;;;41.13;25.20;;;16.70;78.80;;;;;;4933895;29;20587;-79